KNRB/NRB METAR and TAF weather

Enter ICAO airport designator
Station Type Date Time Source
KNRB METAR 2019/05/26 00:52 UTC NOAA

KNRB 260052Z AUTO 16010KT 10SM CLR 27/22 A3010 RMK AO2 SLP193 T02720217


Station Type Date Time Source
KNRB Decoded METAR 2019/05/26 00:52 UTC NOAA

MAYPORT NAVAL AIR FACILITY, FL, United States (KNRB) 30-24N 81-25W 4M
May 25, 2019 - 08:52 PM EDT / 2019.05.26 0052 UTC
Wind: from the SSE (160 degrees) at 12 MPH (10 KT):0
Visibility: 10 mile(s):0
Sky conditions: clear
Temperature: 81.0 F (27.2 C)
Dew Point: 71.1 F (21.7 C)
Relative Humidity: 71%
Pressure (altimeter): 30.1 in. Hg (1019 hPa)
ob: KNRB 260052Z AUTO 16010KT 10SM CLR 27/22 A3010 RMK AO2 SLP193 T02720217
cycle: 1

Station Type Date Time Source
KNRB TAF 2019/05/25 23:03 UTC NOAA

TAF KNRB 2523/2623 08010KT 9999 SCT050 QNH3001INS
BECMG 2600/2602 16008KT QNH3005INS AUTOMATED SENSOR METWATCH 2523 TIL 2812 T23/2610Z T33/2621Z FN00205

Example: see airport list